sensor_id;sensor_type;location;lat;lon;timestamp;temperature;humidity
802;DHT22;383;48.766;9.270;2024-03-23T00:52:35;9.60;89.90
802;DHT22;383;48.766;9.270;2024-03-23T00:55:01;9.60;90.00
802;DHT22;383;48.766;9.270;2024-03-23T00:57:27;9.60;90.00
802;DHT22;383;48.766;9.270;2024-03-23T00:59:54;9.60;89.90
802;DHT22;383;48.766;9.270;2024-03-23T01:02:19;9.50;90.00
802;DHT22;383;48.766;9.270;2024-03-23T01:04:46;9.50;90.00
802;DHT22;383;48.766;9.270;2024-03-23T01:07:12;9.50;89.90
802;DHT22;383;48.766;9.270;2024-03-23T01:09:40;9.50;89.80
802;DHT22;383;48.766;9.270;2024-03-23T01:12:06;9.50;90.00
802;DHT22;383;48.766;9.270;2024-03-23T01:14:32;9.50;90.10
802;DHT22;383;48.766;9.270;2024-03-23T01:16:58;9.50;90.30
802;DHT22;383;48.766;9.270;2024-03-23T01:19:25;9.50;90.50
802;DHT22;383;48.766;9.270;2024-03-23T01:21:50;9.60;90.20
802;DHT22;383;48.766;9.270;2024-03-23T01:24:17;9.60;90.20
802;DHT22;383;48.766;9.270;2024-03-23T01:26:44;9.60;90.30
802;DHT22;383;48.766;9.270;2024-03-23T01:29:11;9.70;90.10
802;DHT22;383;48.766;9.270;2024-03-23T01:31:36;9.70;89.80
802;DHT22;383;48.766;9.270;2024-03-23T01:34:03;9.70;90.20
802;DHT22;383;48.766;9.270;2024-03-23T01:36:29;9.70;90.30
802;DHT22;383;48.766;9.270;2024-03-23T01:38:55;9.70;90.40
802;DHT22;383;48.766;9.270;2024-03-23T01:41:21;9.70;90.60
802;DHT22;383;48.766;9.270;2024-03-23T01:43:49;9.80;90.40
802;DHT22;383;48.766;9.270;2024-03-23T01:46:15;10.00;89.70
802;DHT22;383;48.766;9.270;2024-03-23T01:48:42;10.10;89.40
802;DHT22;383;48.766;9.270;2024-03-23T01:51:08;10.10;89.40
802;DHT22;383;48.766;9.270;2024-03-23T01:53:34;10.10;89.60
802;DHT22;383;48.766;9.270;2024-03-23T01:56:00;10.10;89.30
802;DHT22;383;48.766;9.270;2024-03-23T01:58:28;10.20;88.60
802;DHT22;383;48.766;9.270;2024-03-23T02:00:57;10.10;88.90
802;DHT22;383;48.766;9.270;2024-03-23T02:03:24;10.20;88.80
802;DHT22;383;48.766;9.270;2024-03-23T02:05:50;10.20;88.50
802;DHT22;383;48.766;9.270;2024-03-23T02:08:18;10.40;87.60
802;DHT22;383;48.766;9.270;2024-03-23T02:10:44;10.40;87.40
802;DHT22;383;48.766;9.270;2024-03-23T02:13:11;10.40;87.40
802;DHT22;383;48.766;9.270;2024-03-23T02:15:39;10.40;87.10
802;DHT22;383;48.766;9.270;2024-03-23T02:18:07;10.60;86.40
802;DHT22;383;48.766;9.270;2024-03-23T02:20:33;10.60;86.50
802;DHT22;383;48.766;9.270;2024-03-23T02:23:01;10.60;86.10
802;DHT22;383;48.766;9.270;2024-03-23T02:25:26;10.60;86.10
802;DHT22;383;48.766;9.270;2024-03-23T02:27:53;10.60;86.30
802;DHT22;383;48.766;9.270;2024-03-23T02:30:19;10.60;86.10
802;DHT22;383;48.766;9.270;2024-03-23T02:35:56;10.50;86.80
802;DHT22;383;48.766;9.270;2024-03-23T02:38:24;10.50;86.70
802;DHT22;383;48.766;9.270;2024-03-23T02:40:49;10.50;86.50
802;DHT22;383;48.766;9.270;2024-03-23T02:43:16;10.60;86.50
802;DHT22;383;48.766;9.270;2024-03-23T02:45:42;10.60;86.80
802;DHT22;383;48.766;9.270;2024-03-23T02:48:08;10.50;86.80
802;DHT22;383;48.766;9.270;2024-03-23T02:50:34;10.50;86.80
802;DHT22;383;48.766;9.270;2024-03-23T02:53:01;10.50;87.20
802;DHT22;383;48.766;9.270;2024-03-23T02:55:29;10.50;87.40
802;DHT22;383;48.766;9.270;2024-03-23T02:57:55;10.50;87.10
802;DHT22;383;48.766;9.270;2024-03-23T03:00:21;10.60;87.10
802;DHT22;383;48.766;9.270;2024-03-23T03:02:47;10.60;87.10
802;DHT22;383;48.766;9.270;2024-03-23T03:05:13;10.70;87.10
802;DHT22;383;48.766;9.270;2024-03-23T03:07:40;10.70;86.70
802;DHT22;383;48.766;9.270;2024-03-23T03:10:06;10.70;86.40
802;DHT22;383;48.766;9.270;2024-03-23T03:12:37;10.70;86.70
802;DHT22;383;48.766;9.270;2024-03-23T03:15:04;10.60;86.80
802;DHT22;383;48.766;9.270;2024-03-23T03:17:31;10.60;87.10
802;DHT22;383;48.766;9.270;2024-03-23T03:19:56;10.60;87.20
802;DHT22;383;48.766;9.270;2024-03-23T03:22:23;10.60;86.80
802;DHT22;383;48.766;9.270;2024-03-23T03:24:49;10.50;87.60
802;DHT22;383;48.766;9.270;2024-03-23T03:27:16;10.50;87.60
802;DHT22;383;48.766;9.270;2024-03-23T03:29:43;10.40;88.00
802;DHT22;383;48.766;9.270;2024-03-23T03:32:09;10.30;88.20
802;DHT22;383;48.766;9.270;2024-03-23T03:34:35;10.40;87.60
802;DHT22;383;48.766;9.270;2024-03-23T03:37:02;10.30;88.10
802;DHT22;383;48.766;9.270;2024-03-23T03:39:27;10.30;88.40
802;DHT22;383;48.766;9.270;2024-03-23T03:41:54;10.30;88.50
802;DHT22;383;48.766;9.270;2024-03-23T03:44:19;10.30;88.40
802;DHT22;383;48.766;9.270;2024-03-23T03:46:48;10.30;88.20
802;DHT22;383;48.766;9.270;2024-03-23T03:49:13;10.30;88.40
802;DHT22;383;48.766;9.270;2024-03-23T03:51:40;10.20;88.90
802;DHT22;383;48.766;9.270;2024-03-23T03:54:06;10.20;89.20
802;DHT22;383;48.766;9.270;2024-03-23T03:56:33;10.20;89.40
802;DHT22;383;48.766;9.270;2024-03-23T03:58:58;10.10;89.30
802;DHT22;383;48.766;9.270;2024-03-23T04:01:25;10.00;89.60
802;DHT22;383;48.766;9.270;2024-03-23T04:03:52;10.00;89.40
802;DHT22;383;48.766;9.270;2024-03-23T04:06:19;10.00;89.20
802;DHT22;383;48.766;9.270;2024-03-23T04:08:45;10.00;89.00
802;DHT22;383;48.766;9.270;2024-03-23T04:11:11;10.00;89.20
802;DHT22;383;48.766;9.270;2024-03-23T04:13:37;10.00;89.20
802;DHT22;383;48.766;9.270;2024-03-23T04:16:07;9.90;89.70
802;DHT22;383;48.766;9.270;2024-03-23T04:18:32;9.80;90.20
802;DHT22;383;48.766;9.270;2024-03-23T04:21:00;9.70;90.60
802;DHT22;383;48.766;9.270;2024-03-23T04:23:26;9.60;91.00
802;DHT22;383;48.766;9.270;2024-03-23T04:25:53;9.60;90.90
802;DHT22;383;48.766;9.270;2024-03-23T04:28:19;9.70;91.00
802;DHT22;383;48.766;9.270;2024-03-23T04:30:45;9.70;90.80
802;DHT22;383;48.766;9.270;2024-03-23T04:33:11;9.70;90.80
802;DHT22;383;48.766;9.270;2024-03-23T04:35:37;9.70;90.80
802;DHT22;383;48.766;9.270;2024-03-23T04:38:05;9.60;90.90
802;DHT22;383;48.766;9.270;2024-03-23T04:40:31;9.70;91.00
802;DHT22;383;48.766;9.270;2024-03-23T04:42:58;9.70;90.90
802;DHT22;383;48.766;9.270;2024-03-23T04:45:26;9.70;90.60
802;DHT22;383;48.766;9.270;2024-03-23T04:47:52;9.80;90.10
802;DHT22;383;48.766;9.270;2024-03-23T04:50:19;9.80;91.00
802;DHT22;383;48.766;9.270;2024-03-23T04:52:46;10.00;91.80
802;DHT22;383;48.766;9.270;2024-03-23T04:55:14;10.20;93.20
802;DHT22;383;48.766;9.270;2024-03-23T04:57:40;10.50;93.60
802;DHT22;383;48.766;9.270;2024-03-23T05:00:08;10.70;94.10
802;DHT22;383;48.766;9.270;2024-03-23T05:02:43;10.90;94.00
802;DHT22;383;48.766;9.270;2024-03-23T05:05:09;11.10;93.80
802;DHT22;383;48.766;9.270;2024-03-23T05:07:35;11.20;94.30
802;DHT22;383;48.766;9.270;2024-03-23T05:10:02;11.40;95.70
802;DHT22;383;48.766;9.270;2024-03-23T05:12:30;11.40;96.50
802;DHT22;383;48.766;9.270;2024-03-23T05:14:56;11.40;97.30
802;DHT22;383;48.766;9.270;2024-03-23T05:17:22;11.40;97.90
802;DHT22;383;48.766;9.270;2024-03-23T05:19:49;11.40;98.70
802;DHT22;383;48.766;9.270;2024-03-23T05:22:14;11.40;99.20
802;DHT22;383;48.766;9.270;2024-03-23T05:24:41;11.40;99.10
802;DHT22;383;48.766;9.270;2024-03-23T05:27:07;11.30;99.40
802;DHT22;383;48.766;9.270;2024-03-23T05:29:34;11.40;99.70
802;DHT22;383;48.766;9.270;2024-03-23T05:32:00;11.40;99.30
802;DHT22;383;48.766;9.270;2024-03-23T05:34:27;11.30;99.10
802;DHT22;383;48.766;9.270;2024-03-23T05:36:53;11.30;99.10
802;DHT22;383;48.766;9.270;2024-03-23T05:39:20;11.20;98.90
802;DHT22;383;48.766;9.270;2024-03-23T05:41:47;11.20;99.10
802;DHT22;383;48.766;9.270;2024-03-23T05:44:14;11.10;99.40
802;DHT22;383;48.766;9.270;2024-03-23T05:46:41;11.10;99.00
802;DHT22;383;48.766;9.270;2024-03-23T05:49:13;11.10;98.10
802;DHT22;383;48.766;9.270;2024-03-23T05:51:39;11.00;99.00
802;DHT22;383;48.766;9.270;2024-03-23T05:54:06;11.00;99.00
802;DHT22;383;48.766;9.270;2024-03-23T05:56:31;11.00;99.00
802;DHT22;383;48.766;9.270;2024-03-23T05:58:58;11.00;98.40
802;DHT22;383;48.766;9.270;2024-03-23T06:01:24;11.00;98.70
802;DHT22;383;48.766;9.270;2024-03-23T06:03:55;11.00;98.30
802;DHT22;383;48.766;9.270;2024-03-23T06:06:21;10.90;98.10
802;DHT22;383;48.766;9.270;2024-03-23T06:08:47;10.80;97.90
802;DHT22;383;48.766;9.270;2024-03-23T06:11:13;10.60;96.20
802;DHT22;383;48.766;9.270;2024-03-23T06:13:40;10.60;96.30
802;DHT22;383;48.766;9.270;2024-03-23T06:16:06;10.50;95.10
802;DHT22;383;48.766;9.270;2024-03-23T06:18:32;10.40;95.30
802;DHT22;383;48.766;9.270;2024-03-23T06:20:59;10.40;96.10
802;DHT22;383;48.766;9.270;2024-03-23T06:23:26;10.40;95.30
802;DHT22;383;48.766;9.270;2024-03-23T06:25:52;10.40;93.90
802;DHT22;383;48.766;9.270;2024-03-23T06:28:18;10.40;93.20
802;DHT22;383;48.766;9.270;2024-03-23T06:30:44;10.30;93.20
802;DHT22;383;48.766;9.270;2024-03-23T06:33:11;10.30;93.60
802;DHT22;383;48.766;9.270;2024-03-23T06:35:37;10.30;94.20
802;DHT22;383;48.766;9.270;2024-03-23T06:38:05;10.30;94.60
802;DHT22;383;48.766;9.270;2024-03-23T06:40:30;10.30;95.00
802;DHT22;383;48.766;9.270;2024-03-23T06:42:57;10.40;95.30
802;DHT22;383;48.766;9.270;2024-03-23T06:45:23;10.30;94.40
802;DHT22;383;48.766;9.270;2024-03-23T06:47:50;10.40;92.20
802;DHT22;383;48.766;9.270;2024-03-23T06:50:15;10.30;93.10
802;DHT22;383;48.766;9.270;2024-03-23T06:52:42;10.40;93.70
802;DHT22;383;48.766;9.270;2024-03-23T06:55:09;10.40;93.50
802;DHT22;383;48.766;9.270;2024-03-23T06:57:36;10.40;92.00
802;DHT22;383;48.766;9.270;2024-03-23T07:00:02;10.40;92.30
802;DHT22;383;48.766;9.270;2024-03-23T07:02:29;10.40;91.90
802;DHT22;383;48.766;9.270;2024-03-23T07:04:55;10.40;91.70
802;DHT22;383;48.766;9.270;2024-03-23T07:07:22;10.50;91.10
802;DHT22;383;48.766;9.270;2024-03-23T07:09:47;10.50;90.20
802;DHT22;383;48.766;9.270;2024-03-23T07:12:15;10.50;90.80
802;DHT22;383;48.766;9.270;2024-03-23T07:14:41;10.50;89.80
802;DHT22;383;48.766;9.270;2024-03-23T07:17:08;10.60;90.00
802;DHT22;383;48.766;9.270;2024-03-23T07:19:33;10.60;90.00
802;DHT22;383;48.766;9.270;2024-03-23T07:22:00;10.70;89.60
802;DHT22;383;48.766;9.270;2024-03-23T07:24:26;10.70;87.70
802;DHT22;383;48.766;9.270;2024-03-23T07:26:52;10.50;88.40
802;DHT22;383;48.766;9.270;2024-03-23T07:29:21;10.50;89.40
802;DHT22;383;48.766;9.270;2024-03-23T07:31:48;10.60;88.80
802;DHT22;383;48.766;9.270;2024-03-23T07:34:14;10.70;89.40
802;DHT22;383;48.766;9.270;2024-03-23T07:36:40;10.80;87.60
802;DHT22;383;48.766;9.270;2024-03-23T07:39:06;10.80;87.20
802;DHT22;383;48.766;9.270;2024-03-23T07:41:33;10.80;87.20
802;DHT22;383;48.766;9.270;2024-03-23T07:43:59;10.90;86.70
802;DHT22;383;48.766;9.270;2024-03-23T07:46:27;10.90;85.90
802;DHT22;383;48.766;9.270;2024-03-23T07:48:53;10.80;85.90
802;DHT22;383;48.766;9.270;2024-03-23T07:51:21;10.70;87.60
802;DHT22;383;48.766;9.270;2024-03-23T07:53:47;10.80;87.30
802;DHT22;383;48.766;9.270;2024-03-23T07:56:14;10.80;87.20
802;DHT22;383;48.766;9.270;2024-03-23T07:58:41;10.80;87.60
802;DHT22;383;48.766;9.270;2024-03-23T08:01:09;10.70;87.40
802;DHT22;383;48.766;9.270;2024-03-23T08:03:36;10.60;90.70
802;DHT22;383;48.766;9.270;2024-03-23T08:06:07;10.30;91.40
802;DHT22;383;48.766;9.270;2024-03-23T08:08:33;10.20;91.50
802;DHT22;383;48.766;9.270;2024-03-23T08:11:00;10.00;91.50
802;DHT22;383;48.766;9.270;2024-03-23T08:13:26;9.90;90.70
802;DHT22;383;48.766;9.270;2024-03-23T08:15:56;9.80;92.60
802;DHT22;383;48.766;9.270;2024-03-23T08:18:22;9.80;93.70
802;DHT22;383;48.766;9.270;2024-03-23T08:20:56;9.80;92.50
802;DHT22;383;48.766;9.270;2024-03-23T08:23:22;9.70;94.00
802;DHT22;383;48.766;9.270;2024-03-23T08:25:49;9.70;92.90
802;DHT22;383;48.766;9.270;2024-03-23T08:28:15;9.60;92.90
802;DHT22;383;48.766;9.270;2024-03-23T08:30:42;9.60;93.20
802;DHT22;383;48.766;9.270;2024-03-23T08:33:08;9.60;92.70
802;DHT22;383;48.766;9.270;2024-03-23T08:35:34;9.60;93.80
802;DHT22;383;48.766;9.270;2024-03-23T08:38:01;9.70;93.30
802;DHT22;383;48.766;9.270;2024-03-23T08:40:28;9.80;92.60
802;DHT22;383;48.766;9.270;2024-03-23T08:42:54;9.80;91.30
802;DHT22;383;48.766;9.270;2024-03-23T08:45:20;9.80;91.30
802;DHT22;383;48.766;9.270;2024-03-23T08:47:46;9.70;89.20
802;DHT22;383;48.766;9.270;2024-03-23T08:50:13;9.70;91.00
802;DHT22;383;48.766;9.270;2024-03-23T08:52:38;9.70;90.60
802;DHT22;383;48.766;9.270;2024-03-23T08:55:07;9.70;88.50
802;DHT22;383;48.766;9.270;2024-03-23T08:57:34;9.60;89.00
802;DHT22;383;48.766;9.270;2024-03-23T09:00:01;9.60;90.60
802;DHT22;383;48.766;9.270;2024-03-23T09:02:26;9.60;90.10
802;DHT22;383;48.766;9.270;2024-03-23T09:04:53;9.50;90.50
802;DHT22;383;48.766;9.270;2024-03-23T09:07:18;9.50;90.60
802;DHT22;383;48.766;9.270;2024-03-23T09:09:45;9.50;88.00
802;DHT22;383;48.766;9.270;2024-03-23T09:12:12;9.30;89.20
802;DHT22;383;48.766;9.270;2024-03-23T09:14:39;9.30;88.50
802;DHT22;383;48.766;9.270;2024-03-23T09:17:05;9.20;87.80
802;DHT22;383;48.766;9.270;2024-03-23T09:19:32;9.20;88.80
802;DHT22;383;48.766;9.270;2024-03-23T09:21:57;9.10;87.60
802;DHT22;383;48.766;9.270;2024-03-23T09:24:24;9.10;87.70
802;DHT22;383;48.766;9.270;2024-03-23T09:26:51;9.20;88.10
802;DHT22;383;48.766;9.270;2024-03-23T09:29:19;9.20;88.60
802;DHT22;383;48.766;9.270;2024-03-23T09:31:45;9.20;90.00
802;DHT22;383;48.766;9.270;2024-03-23T09:34:12;9.40;87.70
802;DHT22;383;48.766;9.270;2024-03-23T09:36:37;9.60;86.70
802;DHT22;383;48.766;9.270;2024-03-23T09:39:04;9.80;85.20
802;DHT22;383;48.766;9.270;2024-03-23T09:41:31;10.00;83.20
802;DHT22;383;48.766;9.270;2024-03-23T09:43:57;10.20;83.70
802;DHT22;383;48.766;9.270;2024-03-23T09:46:24;10.50;82.60
802;DHT22;383;48.766;9.270;2024-03-23T09:48:51;10.80;79.90
802;DHT22;383;48.766;9.270;2024-03-23T09:51:17;11.00;79.30
802;DHT22;383;48.766;9.270;2024-03-23T09:53:44;11.20;80.60
802;DHT22;383;48.766;9.270;2024-03-23T09:56:09;11.30;77.90
802;DHT22;383;48.766;9.270;2024-03-23T09:58:36;11.50;76.60
802;DHT22;383;48.766;9.270;2024-03-23T10:01:02;11.60;77.70
802;DHT22;383;48.766;9.270;2024-03-23T10:03:31;11.70;76.10
802;DHT22;383;48.766;9.270;2024-03-23T10:06:01;11.60;73.70
802;DHT22;383;48.766;9.270;2024-03-23T10:08:29;11.50;72.00
802;DHT22;383;48.766;9.270;2024-03-23T10:10:54;11.60;73.30
802;DHT22;383;48.766;9.270;2024-03-23T10:13:25;11.70;69.30
802;DHT22;383;48.766;9.270;2024-03-23T10:15:55;11.70;65.60
802;DHT22;383;48.766;9.270;2024-03-23T10:18:23;11.80;66.20
802;DHT22;383;48.766;9.270;2024-03-23T10:21:07;11.80;62.20
802;DHT22;383;48.766;9.270;2024-03-23T10:23:34;11.80;63.90
802;DHT22;383;48.766;9.270;2024-03-23T10:26:13;11.80;61.90
802;DHT22;383;48.766;9.270;2024-03-23T10:28:54;11.70;63.10
802;DHT22;383;48.766;9.270;2024-03-23T10:31:22;11.80;64.10
802;DHT22;383;48.766;9.270;2024-03-23T10:33:48;11.90;65.50
802;DHT22;383;48.766;9.270;2024-03-23T10:36:17;11.80;64.10
802;DHT22;383;48.766;9.270;2024-03-23T10:38:46;11.60;64.90
802;DHT22;383;48.766;9.270;2024-03-23T10:41:12;11.60;66.30
802;DHT22;383;48.766;9.270;2024-03-23T10:43:39;11.70;67.60
802;DHT22;383;48.766;9.270;2024-03-23T10:46:06;11.60;66.40
802;DHT22;383;48.766;9.270;2024-03-23T10:48:32;11.70;64.20
802;DHT22;383;48.766;9.270;2024-03-23T10:50:59;11.80;63.40
802;DHT22;383;48.766;9.270;2024-03-23T10:53:36;11.70;62.10
802;DHT22;383;48.766;9.270;2024-03-23T10:56:04;11.70;64.10
802;DHT22;383;48.766;9.270;2024-03-23T10:58:33;11.70;64.70
802;DHT22;383;48.766;9.270;2024-03-23T11:01:02;11.60;68.30
802;DHT22;383;48.766;9.270;2024-03-23T11:03:35;11.10;71.60
802;DHT22;383;48.766;9.270;2024-03-23T11:06:03;10.60;75.20
802;DHT22;383;48.766;9.270;2024-03-23T11:08:34;10.20;81.60
802;DHT22;383;48.766;9.270;2024-03-23T11:11:12;9.90;82.30
802;DHT22;383;48.766;9.270;2024-03-23T11:13:38;9.40;87.10
802;DHT22;383;48.766;9.270;2024-03-23T11:16:13;9.10;87.60
802;DHT22;383;48.766;9.270;2024-03-23T11:18:39;8.80;90.50
802;DHT22;383;48.766;9.270;2024-03-23T11:21:06;8.70;92.30
802;DHT22;383;48.766;9.270;2024-03-23T11:23:33;8.70;92.70
802;DHT22;383;48.766;9.270;2024-03-23T11:26:00;8.80;89.90
802;DHT22;383;48.766;9.270;2024-03-23T11:28:26;9.00;89.00
802;DHT22;383;48.766;9.270;2024-03-23T11:30:53;8.90;89.90
802;DHT22;383;48.766;9.270;2024-03-23T11:33:18;9.20;91.80
802;DHT22;383;48.766;9.270;2024-03-23T11:35:45;9.40;91.20
802;DHT22;383;48.766;9.270;2024-03-23T11:38:12;9.40;88.10
802;DHT22;383;48.766;9.270;2024-03-23T11:40:42;9.40;89.70
802;DHT22;383;48.766;9.270;2024-03-23T11:43:08;9.70;90.20
802;DHT22;383;48.766;9.270;2024-03-23T11:45:38;10.00;90.90
802;DHT22;383;48.766;9.270;2024-03-23T11:48:06;10.20;91.10
802;DHT22;383;48.766;9.270;2024-03-23T11:50:35;10.50;90.10
802;DHT22;383;48.766;9.270;2024-03-23T11:53:14;10.90;85.50
802;DHT22;383;48.766;9.270;2024-03-23T11:55:46;11.20;84.40
802;DHT22;383;48.766;9.270;2024-03-23T11:58:13;11.40;83.90
802;DHT22;383;48.766;9.270;2024-03-23T12:00:40;11.60;83.00
802;DHT22;383;48.766;9.270;2024-03-23T12:03:06;11.90;80.00
802;DHT22;383;48.766;9.270;2024-03-23T12:05:33;12.00;80.60
802;DHT22;383;48.766;9.270;2024-03-23T12:08:16;12.10;79.00
802;DHT22;383;48.766;9.270;2024-03-23T12:10:48;12.20;77.80
802;DHT22;383;48.766;9.270;2024-03-23T12:13:18;12.30;77.30
802;DHT22;383;48.766;9.270;2024-03-23T12:15:46;12.40;72.90
802;DHT22;383;48.766;9.270;2024-03-23T12:18:12;12.20;71.30
802;DHT22;383;48.766;9.270;2024-03-23T12:20:40;12.10;71.70
802;DHT22;383;48.766;9.270;2024-03-23T12:23:06;12.10;70.40
802;DHT22;383;48.766;9.270;2024-03-23T12:25:33;11.70;65.50
802;DHT22;383;48.766;9.270;2024-03-23T12:28:01;11.40;67.10
802;DHT22;383;48.766;9.270;2024-03-23T12:30:27;11.40;69.60
802;DHT22;383;48.766;9.270;2024-03-23T12:32:53;11.40;68.90
802;DHT22;383;48.766;9.270;2024-03-23T12:35:20;11.40;69.20
802;DHT22;383;48.766;9.270;2024-03-23T12:37:46;11.50;68.00
802;DHT22;383;48.766;9.270;2024-03-23T12:40:12;11.50;67.20
802;DHT22;383;48.766;9.270;2024-03-23T12:42:38;11.60;68.70
802;DHT22;383;48.766;9.270;2024-03-23T12:45:07;11.70;69.20
802;DHT22;383;48.766;9.270;2024-03-23T12:47:33;11.80;66.70
802;DHT22;383;48.766;9.270;2024-03-23T12:50:00;11.90;65.20
802;DHT22;383;48.766;9.270;2024-03-23T12:52:25;12.00;66.20
802;DHT22;383;48.766;9.270;2024-03-23T12:54:54;12.10;65.20
802;DHT22;383;48.766;9.270;2024-03-23T12:57:22;11.90;63.70
802;DHT22;383;48.766;9.270;2024-03-23T12:59:48;11.80;62.30
802;DHT22;383;48.766;9.270;2024-03-23T13:02:18;11.80;64.30
802;DHT22;383;48.766;9.270;2024-03-23T13:04:46;11.70;64.60
802;DHT22;383;48.766;9.270;2024-03-23T13:07:12;11.70;65.90
802;DHT22;383;48.766;9.270;2024-03-23T13:09:38;11.70;65.60
802;DHT22;383;48.766;9.270;2024-03-23T13:12:05;11.70;65.20
802;DHT22;383;48.766;9.270;2024-03-23T13:14:33;11.80;66.00
802;DHT22;383;48.766;9.270;2024-03-23T13:16:59;11.70;65.90
802;DHT22;383;48.766;9.270;2024-03-23T13:19:27;11.70;64.60
802;DHT22;383;48.766;9.270;2024-03-23T13:21:56;11.60;65.80
802;DHT22;383;48.766;9.270;2024-03-23T13:24:22;11.40;66.30
802;DHT22;383;48.766;9.270;2024-03-23T13:26:50;11.50;67.10
802;DHT22;383;48.766;9.270;2024-03-23T13:29:16;11.50;66.30
802;DHT22;383;48.766;9.270;2024-03-23T13:31:42;11.60;65.00
802;DHT22;383;48.766;9.270;2024-03-23T13:34:08;11.70;65.50
802;DHT22;383;48.766;9.270;2024-03-23T13:36:36;11.70;66.30
802;DHT22;383;48.766;9.270;2024-03-23T13:39:02;11.90;66.70
802;DHT22;383;48.766;9.270;2024-03-23T13:41:31;12.00;66.30
802;DHT22;383;48.766;9.270;2024-03-23T13:43:58;12.10;63.80
802;DHT22;383;48.766;9.270;2024-03-23T13:46:24;12.20;62.30
802;DHT22;383;48.766;9.270;2024-03-23T13:48:50;12.20;60.10
802;DHT22;383;48.766;9.270;2024-03-23T13:51:23;12.10;60.60
802;DHT22;383;48.766;9.270;2024-03-23T13:53:52;12.20;57.70
802;DHT22;383;48.766;9.270;2024-03-23T13:56:17;12.30;57.40
802;DHT22;383;48.766;9.270;2024-03-23T13:58:44;12.40;58.10
802;DHT22;383;48.766;9.270;2024-03-23T14:01:13;12.40;55.50
802;DHT22;383;48.766;9.270;2024-03-23T14:03:39;12.40;56.40
802;DHT22;383;48.766;9.270;2024-03-23T14:06:06;12.50;56.60
802;DHT22;383;48.766;9.270;2024-03-23T14:08:33;12.60;55.20
802;DHT22;383;48.766;9.270;2024-03-23T14:11:02;12.70;56.00
802;DHT22;383;48.766;9.270;2024-03-23T14:13:30;12.60;55.10
802;DHT22;383;48.766;9.270;2024-03-23T14:15:56;12.50;57.10
802;DHT22;383;48.766;9.270;2024-03-23T14:18:23;12.30;58.60
802;DHT22;383;48.766;9.270;2024-03-23T14:20:48;12.00;63.40
802;DHT22;383;48.766;9.270;2024-03-23T14:23:15;11.30;68.80
802;DHT22;383;48.766;9.270;2024-03-23T14:25:41;10.80;73.80
802;DHT22;383;48.766;9.270;2024-03-23T14:28:09;10.20;77.70
802;DHT22;383;48.766;9.270;2024-03-23T14:30:40;9.60;83.00
802;DHT22;383;48.766;9.270;2024-03-23T14:33:07;9.20;89.00
802;DHT22;383;48.766;9.270;2024-03-23T14:35:32;9.10;91.00
802;DHT22;383;48.766;9.270;2024-03-23T14:37:59;9.10;89.40
802;DHT22;383;48.766;9.270;2024-03-23T14:40:25;9.30;90.80
802;DHT22;383;48.766;9.270;2024-03-23T14:42:53;9.40;88.80
802;DHT22;383;48.766;9.270;2024-03-23T14:45:20;9.40;87.10
802;DHT22;383;48.766;9.270;2024-03-23T14:47:47;9.40;87.70
802;DHT22;383;48.766;9.270;2024-03-23T14:50:13;9.50;88.80
802;DHT22;383;48.766;9.270;2024-03-23T14:52:41;9.50;86.50
802;DHT22;383;48.766;9.270;2024-03-23T14:55:07;9.60;84.90
802;DHT22;383;48.766;9.270;2024-03-23T14:57:35;9.70;83.40
802;DHT22;383;48.766;9.270;2024-03-23T15:00:01;9.60;81.40
802;DHT22;383;48.766;9.270;2024-03-23T15:02:31;9.60;84.30
802;DHT22;383;48.766;9.270;2024-03-23T15:04:58;9.60;79.10
802;DHT22;383;48.766;9.270;2024-03-23T15:07:24;9.40;81.10
802;DHT22;383;48.766;9.270;2024-03-23T15:09:50;9.40;84.00
802;DHT22;383;48.766;9.270;2024-03-23T15:12:17;9.50;83.40
802;DHT22;383;48.766;9.270;2024-03-23T15:14:42;9.30;80.20
802;DHT22;383;48.766;9.270;2024-03-23T15:17:09;9.30;81.90
802;DHT22;383;48.766;9.270;2024-03-23T15:19:36;9.40;79.50
802;DHT22;383;48.766;9.270;2024-03-23T15:22:03;9.60;79.90
802;DHT22;383;48.766;9.270;2024-03-23T15:24:29;9.50;80.30
802;DHT22;383;48.766;9.270;2024-03-23T15:26:57;9.60;79.30
802;DHT22;383;48.766;9.270;2024-03-23T15:29:22;9.60;78.20
802;DHT22;383;48.766;9.270;2024-03-23T15:31:49;9.70;77.70
802;DHT22;383;48.766;9.270;2024-03-23T15:34:18;9.80;77.90
802;DHT22;383;48.766;9.270;2024-03-23T15:36:48;9.70;77.00
802;DHT22;383;48.766;9.270;2024-03-23T15:39:16;9.70;77.80
802;DHT22;383;48.766;9.270;2024-03-23T15:41:44;9.70;75.30
802;DHT22;383;48.766;9.270;2024-03-23T15:44:10;9.70;74.90
802;DHT22;383;48.766;9.270;2024-03-23T15:46:36;9.80;74.90
802;DHT22;383;48.766;9.270;2024-03-23T15:49:02;9.80;74.00
802;DHT22;383;48.766;9.270;2024-03-23T15:51:29;9.70;72.10
802;DHT22;383;48.766;9.270;2024-03-23T15:53:59;9.80;72.90
802;DHT22;383;48.766;9.270;2024-03-23T15:56:25;9.90;73.80
802;DHT22;383;48.766;9.270;2024-03-23T15:58:51;10.00;71.60
802;DHT22;383;48.766;9.270;2024-03-23T16:01:18;10.00;68.20
802;DHT22;383;48.766;9.270;2024-03-23T16:03:44;10.00;71.30
802;DHT22;383;48.766;9.270;2024-03-23T16:06:11;9.90;72.00
802;DHT22;383;48.766;9.270;2024-03-23T16:08:37;9.90;73.20
802;DHT22;383;48.766;9.270;2024-03-23T16:11:06;9.90;74.00
802;DHT22;383;48.766;9.270;2024-03-23T16:13:32;10.00;74.00
802;DHT22;383;48.766;9.270;2024-03-23T16:16:00;10.10;73.80
802;DHT22;383;48.766;9.270;2024-03-23T16:18:26;10.10;72.30
802;DHT22;383;48.766;9.270;2024-03-23T16:20:54;10.20;72.60
802;DHT22;383;48.766;9.270;2024-03-23T16:23:19;10.20;72.90
802;DHT22;383;48.766;9.270;2024-03-23T16:25:47;10.00;72.10
802;DHT22;383;48.766;9.270;2024-03-23T16:28:16;10.00;72.30
802;DHT22;383;48.766;9.270;2024-03-23T16:30:43;9.80;70.40
802;DHT22;383;48.766;9.270;2024-03-23T16:33:08;9.60;70.90
802;DHT22;383;48.766;9.270;2024-03-23T16:35:34;9.50;72.80
802;DHT22;383;48.766;9.270;2024-03-23T16:38:01;9.40;70.70
802;DHT22;383;48.766;9.270;2024-03-23T16:40:27;9.20;70.90
802;DHT22;383;48.766;9.270;2024-03-23T16:42:53;9.10;72.60
802;DHT22;383;48.766;9.270;2024-03-23T16:45:20;9.10;72.60
802;DHT22;383;48.766;9.270;2024-03-23T16:47:47;9.10;73.00
802;DHT22;383;48.766;9.270;2024-03-23T16:50:12;9.10;72.10
802;DHT22;383;48.766;9.270;2024-03-23T16:52:39;9.10;72.30
802;DHT22;383;48.766;9.270;2024-03-23T16:55:05;9.20;73.80
802;DHT22;383;48.766;9.270;2024-03-23T16:57:32;9.10;73.00
802;DHT22;383;48.766;9.270;2024-03-23T16:59:57;9.00;78.70
802;DHT22;383;48.766;9.270;2024-03-23T17:02:25;8.90;83.20
802;DHT22;383;48.766;9.270;2024-03-23T17:04:51;8.80;84.70
802;DHT22;383;48.766;9.270;2024-03-23T17:07:18;8.80;83.70
802;DHT22;383;48.766;9.270;2024-03-23T17:09:47;8.70;84.40
802;DHT22;383;48.766;9.270;2024-03-23T17:12:14;8.60;86.30
802;DHT22;383;48.766;9.270;2024-03-23T17:14:39;8.60;86.90
802;DHT22;383;48.766;9.270;2024-03-23T17:17:06;8.50;86.30
802;DHT22;383;48.766;9.270;2024-03-23T17:19:34;8.50;86.30
802;DHT22;383;48.766;9.270;2024-03-23T17:22:00;8.40;84.50
802;DHT22;383;48.766;9.270;2024-03-23T17:24:26;8.40;84.40
802;DHT22;383;48.766;9.270;2024-03-23T17:26:53;8.40;83.70
802;DHT22;383;48.766;9.270;2024-03-23T17:29:18;8.30;84.90
802;DHT22;383;48.766;9.270;2024-03-23T17:31:45;8.30;84.50
802;DHT22;383;48.766;9.270;2024-03-23T17:34:11;8.30;84.80